createdAt,value
2019-04-07T00:00:51.988Z,30.67
2019-04-07T00:03:19.548Z,32.07
2019-04-07T00:05:46.426Z,30.93
2019-04-07T00:08:13.428Z,31.80
2019-04-07T00:10:40.191Z,33.77
2019-04-07T00:13:07.123Z,36.43
2019-04-07T00:15:34.448Z,34.87
2019-04-07T00:18:01.022Z,34.17
2019-04-07T00:20:27.701Z,37.53
2019-04-07T00:22:55.141Z,36.77
2019-04-07T00:25:22.694Z,36.07
2019-04-07T00:27:49.468Z,40.60
2019-04-07T00:30:16.858Z,34.13
2019-04-07T00:32:43.476Z,36.30
2019-04-07T00:35:22.193Z,35.70
2019-04-07T00:37:38.762Z,35.20
2019-04-07T00:40:06.912Z,33.37
2019-04-07T00:42:33.754Z,34.57
2019-04-07T00:45:00.821Z,35.67
2019-04-07T00:47:27.449Z,36.13
2019-04-07T00:49:55.584Z,38.17
2019-04-07T00:52:24.048Z,35.90
2019-04-07T00:54:51.313Z,34.47
2019-04-07T00:57:17.863Z,36.33
2019-04-07T00:59:45.199Z,34.63
2019-04-07T01:02:12.277Z,32.47
2019-04-07T01:04:39.637Z,31.93
2019-04-07T01:07:06.441Z,32.27
2019-04-07T01:09:33.121Z,32.60
2019-04-07T01:11:59.657Z,32.70
2019-04-07T01:14:26.551Z,34.33
2019-04-07T01:16:53.186Z,33.90
2019-04-07T01:19:20.025Z,33.27
2019-04-07T01:21:46.902Z,35.73
2019-04-07T01:24:13.551Z,35.10
2019-04-07T01:26:40.496Z,38.30
2019-04-07T01:29:07.187Z,38.43
2019-04-07T01:31:34.073Z,40.73
2019-04-07T01:34:00.735Z,38.23
2019-04-07T01:36:27.917Z,40.00
2019-04-07T01:38:54.678Z,37.50
2019-04-07T01:41:29.095Z,36.77
2019-04-07T01:44:06.893Z,35.93
2019-04-07T01:46:38.040Z,38.23
2019-04-07T01:49:09.119Z,42.00
2019-04-07T01:51:55.521Z,51.70
2019-04-07T01:54:36.229Z,68.70
2019-04-07T01:57:23.506Z,45.43
2019-04-07T02:00:07.246Z,40.70
2019-04-07T02:02:41.724Z,37.83
2019-04-07T02:05:10.863Z,39.70
2019-04-07T02:07:40.050Z,38.20
2019-04-07T02:10:12.059Z,38.13
2019-04-07T02:12:50.689Z,36.77
2019-04-07T02:15:22.805Z,35.20
2019-04-07T02:17:58.187Z,35.93
2019-04-07T02:20:48.796Z,36.33
2019-04-07T02:23:17.467Z,34.70
2019-04-07T02:25:48.620Z,35.40
2019-04-07T02:28:34.119Z,32.80
2019-04-07T02:31:14.360Z,33.87
2019-04-07T02:33:52.427Z,34.70
2019-04-07T02:36:26.157Z,36.67
2019-04-07T02:38:54.694Z,33.10
2019-04-07T02:41:26.116Z,35.33
2019-04-07T02:44:10.842Z,37.17
2019-04-07T02:46:42.149Z,34.13
2019-04-07T02:49:14.152Z,36.10
2019-04-07T02:51:57.712Z,37.17
2019-04-07T02:54:36.024Z,37.83
2019-04-07T02:57:05.464Z,35.63
2019-04-07T02:59:42.651Z,36.53
2019-04-07T03:02:14.180Z,36.03
2019-04-07T03:04:44.288Z,33.67
2019-04-07T03:07:13.552Z,33.57
2019-04-07T03:09:42.192Z,37.37
2019-04-07T03:12:10.633Z,35.27
2019-04-07T03:14:57.195Z,37.23
2019-04-07T03:17:29.640Z,35.20
2019-04-07T03:20:07.130Z,35.97
2019-04-07T03:22:36.673Z,35.50
2019-04-07T03:25:23.908Z,33.77
2019-04-07T03:27:59.201Z,39.93
2019-04-07T03:30:30.545Z,39.70
2019-04-07T03:33:00.655Z,39.90
2019-04-07T03:35:34.028Z,35.17
2019-04-07T03:38:13.930Z,35.53
2019-04-07T03:40:46.227Z,36.67
2019-04-07T03:43:28.158Z,37.13
2019-04-07T03:46:14.488Z,37.00
2019-04-07T03:48:55.456Z,35.07
2019-04-07T03:51:42.100Z,35.43
2019-04-07T03:54:10.490Z,36.20
2019-04-07T03:56:53.718Z,36.97
2019-04-07T03:59:40.648Z,34.57
2019-04-07T04:02:15.114Z,35.17
2019-04-07T04:05:01.554Z,36.60
2019-04-07T04:07:52.979Z,35.30
2019-04-07T04:10:22.343Z,36.83
2019-04-07T04:12:51.309Z,36.80
2019-04-07T04:15:20.210Z,36.40
2019-04-07T04:17:48.038Z,34.93
2019-04-07T04:20:14.851Z,35.93
2019-04-07T04:22:41.473Z,35.10
2019-04-07T04:25:08.889Z,35.00
2019-04-07T04:27:36.875Z,34.37
2019-04-07T04:30:10.201Z,33.27
2019-04-07T04:32:37.116Z,32.57
2019-04-07T04:35:06.476Z,34.33
2019-04-07T04:37:42.623Z,34.63
2019-04-07T04:40:05.311Z,34.37
2019-04-07T04:42:32.012Z,33.13
2019-04-07T04:44:58.891Z,32.00
2019-04-07T04:47:25.742Z,33.47
2019-04-07T04:49:52.760Z,31.43
2019-04-07T04:52:20.610Z,32.80
2019-04-07T04:54:47.574Z,32.93
2019-04-07T04:57:14.383Z,32.90
2019-04-07T04:59:42.114Z,31.60
2019-04-07T05:02:09.071Z,31.80
2019-04-07T05:04:35.692Z,31.60
2019-04-07T05:07:02.279Z,30.87
2019-04-07T05:09:39.982Z,31.77
2019-04-07T05:11:57.446Z,30.00
2019-04-07T05:14:24.227Z,32.13
2019-04-07T05:16:51.519Z,31.83
2019-04-07T05:19:18.243Z,32.50
2019-04-07T05:21:44.811Z,29.40
2019-04-07T05:24:11.505Z,29.27
2019-04-07T05:26:38.819Z,31.07
2019-04-07T05:29:05.919Z,30.10
2019-04-07T05:31:33.717Z,30.10
2019-04-07T05:34:00.422Z,29.70
2019-04-07T05:36:26.962Z,29.23
2019-04-07T05:38:54.117Z,29.67
2019-04-07T05:41:21.875Z,28.47
2019-04-07T05:43:49.038Z,28.37
2019-04-07T05:46:16.021Z,29.07
2019-04-07T05:48:42.653Z,28.80
2019-04-07T05:51:09.711Z,28.50
2019-04-07T05:53:36.563Z,29.80
2019-04-07T05:56:03.468Z,30.13
2019-04-07T05:58:30.137Z,30.03
2019-04-07T06:00:57.057Z,31.37
2019-04-07T06:03:24.123Z,42.73
2019-04-07T06:05:51.256Z,56.17
2019-04-07T06:08:27.643Z,47.63
2019-04-07T06:10:46.770Z,39.40
2019-04-07T06:13:14.693Z,57.03
2019-04-07T06:15:41.823Z,54.17
2019-04-07T06:18:08.378Z,52.03
2019-04-07T06:20:35.005Z,44.83
2019-04-07T06:23:02.022Z,35.03
2019-04-07T06:25:33.237Z,33.13
2019-04-07T06:27:57.798Z,33.97
2019-04-07T06:30:28.095Z,32.43
2019-04-07T06:32:54.714Z,31.33
2019-04-07T06:35:22.453Z,29.37
2019-04-07T06:37:49.102Z,30.47
2019-04-07T06:40:20.443Z,28.70
2019-04-07T06:42:45.691Z,28.43
2019-04-07T06:45:15.101Z,27.97
2019-04-07T06:47:49.765Z,27.80
2019-04-07T06:50:24.050Z,27.20
2019-04-07T06:53:02.219Z,27.17
2019-04-07T06:55:42.791Z,28.37
2019-04-07T06:58:27.661Z,25.37
2019-04-07T07:01:13.268Z,26.23
2019-04-07T07:03:42.059Z,23.33
2019-04-07T07:06:22.937Z,22.83
2019-04-07T07:08:54.186Z,23.87
2019-04-07T07:11:35.428Z,24.00
2019-04-07T07:14:07.871Z,24.00
2019-04-07T07:16:41.170Z,23.03
2019-04-07T07:19:13.004Z,24.17
2019-04-07T07:21:42.726Z,23.60
2019-04-07T07:24:10.461Z,22.80
2019-04-07T07:26:37.142Z,24.52
2019-04-07T07:29:06.314Z,24.35
2019-04-07T07:31:32.124Z,23.87
2019-04-07T07:33:58.863Z,24.32
2019-04-07T07:36:25.413Z,23.60
2019-04-07T07:38:59.010Z,22.90
2019-04-07T07:41:23.034Z,22.62
2019-04-07T07:43:49.285Z,22.05
2019-04-07T07:46:18.417Z,23.45
2019-04-07T07:48:44.575Z,24.02
2019-04-07T07:51:13.279Z,22.80
2019-04-07T07:53:40.287Z,24.02
2019-04-07T07:56:10.602Z,22.73
2019-04-07T07:58:35.595Z,23.73
2019-04-07T08:01:02.199Z,21.95
2019-04-07T08:03:28.982Z,21.15
2019-04-07T08:05:55.625Z,22.07
2019-04-07T08:08:22.219Z,21.27
2019-04-07T08:10:48.920Z,21.07
2019-04-07T08:13:15.620Z,21.25
2019-04-07T08:15:42.637Z,22.85
2019-04-07T08:18:09.702Z,21.87
2019-04-07T08:20:36.429Z,19.95
2019-04-07T08:23:03.658Z,20.55
2019-04-07T08:25:30.737Z,20.25
2019-04-07T08:28:02.143Z,20.95
2019-04-07T08:30:27.210Z,19.87
2019-04-07T08:32:57.127Z,19.85
2019-04-07T08:35:22.269Z,19.30
2019-04-07T08:37:49.971Z,18.55
2019-04-07T08:40:17.103Z,18.73
2019-04-07T08:42:46.393Z,18.23
2019-04-07T08:45:12.945Z,18.25
2019-04-07T08:47:40.233Z,18.75
2019-04-07T08:50:08.442Z,18.20
2019-04-07T08:52:38.441Z,17.73
2019-04-07T08:55:06.099Z,18.40
2019-04-07T08:57:34.669Z,17.05
2019-04-07T09:00:01.492Z,18.52
2019-04-07T09:02:30.169Z,19.45
2019-04-07T09:04:57.008Z,17.67
2019-04-07T09:07:24.618Z,17.77
2019-04-07T09:09:51.516Z,18.30
2019-04-07T09:12:18.475Z,17.25
2019-04-07T09:14:45.636Z,18.65
2019-04-07T09:17:30.652Z,18.80
2019-04-07T09:20:06.105Z,17.95
2019-04-07T09:22:33.039Z,16.97
2019-04-07T09:25:08.223Z,17.15
2019-04-07T09:27:38.137Z,17.10
2019-04-07T09:30:14.206Z,16.12
2019-04-07T09:32:54.641Z,17.37
2019-04-07T09:35:26.798Z,17.45
2019-04-07T09:37:55.981Z,18.50
2019-04-07T09:40:25.316Z,18.70
2019-04-07T09:42:59.994Z,19.62
2019-04-07T09:45:38.572Z,18.55
2019-04-07T09:48:09.048Z,19.37
2019-04-07T09:50:37.628Z,18.52
2019-04-07T09:53:13.862Z,19.45
2019-04-07T09:55:59.218Z,17.92
2019-04-07T09:58:27.694Z,16.00
2019-04-07T10:00:57.719Z,17.65
2019-04-07T10:03:42.857Z,17.95
2019-04-07T10:06:17.199Z,16.80
2019-04-07T10:08:52.214Z,16.75
2019-04-07T10:11:36.213Z,15.10
2019-04-07T10:14:07.916Z,16.82
2019-04-07T10:16:48.446Z,16.27
2019-04-07T10:19:33.242Z,16.77
2019-04-07T10:22:08.319Z,15.68
2019-04-07T10:24:54.904Z,16.37
2019-04-07T10:27:35.396Z,15.88
2019-04-07T10:30:06.774Z,15.83
2019-04-07T10:32:44.262Z,15.28
2019-04-07T10:35:15.725Z,15.28
2019-04-07T10:37:44.317Z,16.12
2019-04-07T10:40:21.227Z,16.30
2019-04-07T10:42:49.249Z,16.97
2019-04-07T10:45:26.978Z,16.70
2019-04-07T10:47:58.516Z,16.60
2019-04-07T10:50:26.960Z,16.12
2019-04-07T10:52:56.205Z,16.12
2019-04-07T10:55:26.407Z,15.88
2019-04-07T10:57:55.005Z,17.00
2019-04-07T11:00:45.486Z,16.70
2019-04-07T11:03:21.274Z,16.07
2019-04-07T11:05:50.424Z,16.52
2019-04-07T11:08:19.032Z,15.38
2019-04-07T11:11:04.502Z,16.57
2019-04-07T11:13:39.032Z,15.85
2019-04-07T11:16:10.924Z,15.23
2019-04-07T11:18:45.289Z,15.48
2019-04-07T11:21:19.519Z,15.38
2019-04-07T11:23:56.777Z,14.95
2019-04-07T11:26:37.405Z,15.48
2019-04-07T11:29:11.882Z,15.53
2019-04-07T11:31:40.577Z,15.23
2019-04-07T11:34:09.133Z,15.40
2019-04-07T11:36:37.565Z,15.05
2019-04-07T11:39:21.985Z,14.28
2019-04-07T11:41:59.402Z,13.83
2019-04-07T11:44:28.032Z,15.50
2019-04-07T11:47:05.209Z,15.43
2019-04-07T11:49:44.471Z,14.10
2019-04-07T11:52:18.802Z,15.35
2019-04-07T11:54:50.127Z,15.35
2019-04-07T11:57:20.354Z,15.40
2019-04-07T11:59:54.004Z,15.65
2019-04-07T12:02:26.384Z,15.23
2019-04-07T12:05:11.750Z,14.73
2019-04-07T12:07:40.335Z,14.45
2019-04-07T12:10:22.483Z,15.48
2019-04-07T12:12:57.020Z,14.80
2019-04-07T12:15:32.405Z,15.28
2019-04-07T12:18:07.183Z,15.15
2019-04-07T12:20:44.034Z,14.85
2019-04-07T12:23:30.678Z,16.50
2019-04-07T12:26:10.974Z,14.85
2019-04-07T12:28:50.333Z,14.18
2019-04-07T12:31:36.230Z,13.98
2019-04-07T12:34:12.046Z,13.28
2019-04-07T12:36:44.208Z,13.95
2019-04-07T12:39:17.335Z,13.98
2019-04-07T12:41:48.966Z,13.95
2019-04-07T12:44:17.393Z,14.90
2019-04-07T12:47:03.079Z,14.55
2019-04-07T12:49:33.323Z,15.15
2019-04-07T12:52:18.472Z,15.63
2019-04-07T12:54:56.785Z,15.98
2019-04-07T12:57:28.831Z,17.00
2019-04-07T12:59:59.962Z,15.65
2019-04-07T13:02:28.566Z,15.85
2019-04-07T13:05:07.661Z,15.30
2019-04-07T13:07:40.295Z,16.48
2019-04-07T13:10:12.960Z,15.83
2019-04-07T13:12:47.848Z,15.80
2019-04-07T13:15:19.465Z,15.53
2019-04-07T13:17:48.458Z,14.93
2019-04-07T13:20:33.783Z,16.17
2019-04-07T13:23:05.917Z,15.50
2019-04-07T13:25:47.349Z,14.83
2019-04-07T13:28:16.451Z,15.75
2019-04-07T13:30:48.781Z,15.98
2019-04-07T13:33:36.089Z,15.33
2019-04-07T13:36:08.261Z,14.63
2019-04-07T13:38:45.822Z,15.17
2019-04-07T13:41:16.197Z,15.60
2019-04-07T13:43:44.722Z,15.28
2019-04-07T13:46:34.827Z,14.00
2019-04-07T13:49:05.789Z,14.40
2019-04-07T13:51:51.379Z,15.47
2019-04-07T13:54:23.079Z,15.88
2019-04-07T13:56:57.501Z,15.43
2019-04-07T13:59:34.897Z,14.43
2019-04-07T14:02:04.210Z,13.78
2019-04-07T14:04:42.328Z,14.43
2019-04-07T14:07:27.446Z,14.53
2019-04-07T14:10:04.381Z,14.17
2019-04-07T14:12:33.383Z,14.93
2019-04-07T14:15:02.910Z,14.40
2019-04-07T14:17:37.349Z,13.60
2019-04-07T14:20:08.809Z,15.20
2019-04-07T14:22:55.569Z,14.10
2019-04-07T14:25:45.362Z,14.70
2019-04-07T14:28:16.927Z,12.93
2019-04-07T14:30:45.638Z,14.13
2019-04-07T14:33:14.110Z,13.10
2019-04-07T14:35:48.833Z,13.00
2019-04-07T14:38:17.512Z,12.57
2019-04-07T14:41:01.084Z,13.03
2019-04-07T14:43:47.545Z,12.37
2019-04-07T14:46:24.823Z,12.03
2019-04-07T14:49:14.117Z,12.43
2019-04-07T14:51:42.417Z,11.93
2019-04-07T14:54:22.617Z,12.67
2019-04-07T14:57:09.087Z,12.63
2019-04-07T14:59:56.328Z,11.80
2019-04-07T15:02:22.928Z,11.50
2019-04-07T15:04:54.434Z,11.33
2019-04-07T15:07:23.687Z,11.73
2019-04-07T15:09:52.431Z,11.97
2019-04-07T15:12:32.721Z,11.93
2019-04-07T15:15:02.077Z,12.17
2019-04-07T15:17:28.274Z,11.43
2019-04-07T15:19:54.995Z,11.60
2019-04-07T15:22:25.139Z,11.77
2019-04-07T15:24:50.072Z,10.70
2019-04-07T15:27:21.626Z,10.97
2019-04-07T15:29:46.785Z,11.80
2019-04-07T15:32:17.089Z,11.47
2019-04-07T15:34:44.515Z,12.83
2019-04-07T15:37:13.204Z,11.83
2019-04-07T15:39:42.773Z,10.77
2019-04-07T15:42:11.216Z,11.23
2019-04-07T15:44:39.711Z,11.20
2019-04-07T15:47:09.353Z,10.63
2019-04-07T15:49:37.216Z,11.30
2019-04-07T15:52:07.656Z,14.57
2019-04-07T15:54:33.823Z,11.60
2019-04-07T15:57:00.567Z,12.60
2019-04-07T15:59:29.794Z,10.93
2019-04-07T16:02:01.143Z,11.57
2019-04-07T16:04:29.605Z,11.10
2019-04-07T16:06:57.271Z,11.67
2019-04-07T16:09:34.413Z,11.43
2019-04-07T16:11:53.375Z,11.60
2019-04-07T16:14:23.008Z,19.67
2019-04-07T16:16:51.661Z,15.60
2019-04-07T16:19:24.912Z,12.87
2019-04-07T16:21:49.807Z,11.63
2019-04-07T16:24:16.732Z,12.53
2019-04-07T16:26:44.343Z,12.70
2019-04-07T16:29:11.523Z,14.40
2019-04-07T16:31:41.272Z,12.40
2019-04-07T16:34:10.382Z,13.43
2019-04-07T16:36:37.763Z,14.53
2019-04-07T16:39:09.314Z,15.67
2019-04-07T16:41:36.053Z,14.00
2019-04-07T16:44:04.797Z,14.03
2019-04-07T16:46:31.648Z,12.30
2019-04-07T16:48:58.703Z,12.57
2019-04-07T16:51:27.710Z,13.50
2019-04-07T16:53:54.999Z,24.87
2019-04-07T16:56:22.277Z,24.87
2019-04-07T16:58:49.154Z,35.20
2019-04-07T17:01:16.077Z,32.13
2019-04-07T17:03:43.097Z,21.37
2019-04-07T17:06:11.950Z,27.17
2019-04-07T17:08:39.123Z,26.23
2019-04-07T17:11:07.809Z,23.03
2019-04-07T17:13:39.848Z,21.67
2019-04-07T17:16:03.273Z,23.07
2019-04-07T17:18:41.419Z,20.50
2019-04-07T17:21:15.906Z,23.67
2019-04-07T17:23:43.708Z,20.57
2019-04-07T17:26:11.541Z,21.40
2019-04-07T17:28:38.899Z,20.33
2019-04-07T17:31:05.925Z,19.90
2019-04-07T17:33:36.789Z,17.77
2019-04-07T17:36:02.455Z,17.20
2019-04-07T17:38:33.155Z,16.30
2019-04-07T17:40:59.955Z,16.13
2019-04-07T17:43:44.722Z,16.30
2019-04-07T17:46:10.866Z,17.43
2019-04-07T17:48:43.994Z,14.37
2019-04-07T17:51:25.026Z,18.83
2019-04-07T17:53:53.963Z,16.17
2019-04-07T17:56:22.624Z,16.43
2019-04-07T17:59:13.063Z,16.10
2019-04-07T18:01:39.145Z,15.50
2019-04-07T18:04:13.916Z,15.80
2019-04-07T18:06:47.460Z,16.00
2019-04-07T18:09:33.968Z,21.77
2019-04-07T18:12:19.812Z,18.80
2019-04-07T18:15:07.617Z,16.23
2019-04-07T18:17:44.633Z,16.33
2019-04-07T18:20:28.347Z,16.10
2019-04-07T18:23:03.493Z,14.70
2019-04-07T18:25:41.429Z,19.73
2019-04-07T18:28:27.488Z,18.37
2019-04-07T18:31:06.756Z,18.20
2019-04-07T18:33:38.503Z,19.13
2019-04-07T18:36:07.980Z,17.93
2019-04-07T18:38:41.696Z,17.43
2019-04-07T18:41:11.322Z,17.77
2019-04-07T18:43:50.592Z,16.73
2019-04-07T18:46:19.918Z,16.13
2019-04-07T18:49:06.253Z,16.53
2019-04-07T18:51:37.617Z,17.00
2019-04-07T18:54:21.431Z,17.13
2019-04-07T18:57:01.626Z,17.53
2019-04-07T18:59:42.194Z,17.80
2019-04-07T19:02:27.056Z,16.80
2019-04-07T19:05:01.375Z,17.97
2019-04-07T19:07:47.191Z,16.70
2019-04-07T19:10:30.942Z,16.77
2019-04-07T19:13:18.908Z,17.13
2019-04-07T19:15:56.808Z,17.57
2019-04-07T19:18:42.394Z,16.13
2019-04-07T19:21:13.787Z,16.97
2019-04-07T19:23:45.196Z,17.00
2019-04-07T19:26:30.165Z,17.07
2019-04-07T19:29:14.115Z,17.60
2019-04-07T19:31:51.722Z,17.80
2019-04-07T19:34:18.640Z,17.23
2019-04-07T19:36:48.129Z,16.77
2019-04-07T19:39:33.152Z,17.47
2019-04-07T19:42:19.873Z,18.13
2019-04-07T19:44:50.988Z,24.67
2019-04-07T19:47:35.210Z,22.37
2019-04-07T19:50:09.767Z,29.93
2019-04-07T19:52:43.185Z,41.03
2019-04-07T19:55:14.811Z,35.03
2019-04-07T19:57:52.601Z,36.80
2019-04-07T20:00:39.836Z,33.07
2019-04-07T20:03:24.786Z,34.70
2019-04-07T20:05:58.992Z,39.97
2019-04-07T20:08:44.222Z,41.27
2019-04-07T20:11:27.366Z,43.43
2019-04-07T20:13:52.787Z,42.13
2019-04-07T20:16:24.279Z,41.23
2019-04-07T20:19:10.855Z,34.37
2019-04-07T20:21:53.243Z,33.50
2019-04-07T20:24:19.581Z,26.80
2019-04-07T20:26:52.853Z,27.53
2019-04-07T20:29:41.409Z,27.53
2019-04-07T20:32:11.127Z,32.70
2019-04-07T20:34:52.611Z,34.37
2019-04-07T20:37:38.825Z,29.47
2019-04-07T20:40:17.242Z,25.00
2019-04-07T20:42:49.109Z,26.53
2019-04-07T20:45:25.189Z,24.53
2019-04-07T20:47:56.597Z,23.53
2019-04-07T20:50:33.511Z,22.27
2019-04-07T20:53:14.856Z,21.80
2019-04-07T20:55:40.020Z,21.93
2019-04-07T20:58:22.105Z,23.77
2019-04-07T21:01:04.037Z,24.37
2019-04-07T21:03:50.342Z,23.70
2019-04-07T21:06:33.743Z,24.97
2019-04-07T21:09:08.034Z,27.30
2019-04-07T21:11:40.492Z,35.50
2019-04-07T21:14:11.380Z,38.87
2019-04-07T21:16:59.326Z,49.40
2019-04-07T21:19:42.320Z,45.90
2019-04-07T21:22:12.457Z,52.50
2019-04-07T21:24:58.629Z,57.30
2019-04-07T21:27:28.410Z,53.13
2019-04-07T21:29:57.976Z,52.67
2019-04-07T21:32:44.260Z,52.07
2019-04-07T21:35:25.813Z,49.57
2019-04-07T21:38:06.119Z,51.33
2019-04-07T21:40:35.291Z,45.87
2019-04-07T21:43:05.806Z,30.20
2019-04-07T21:45:47.357Z,30.77
2019-04-07T21:48:20.014Z,29.50
2019-04-07T21:51:00.384Z,28.77
2019-04-07T21:53:32.134Z,30.87
2019-04-07T21:56:17.893Z,31.07
2019-04-07T21:59:03.209Z,30.00
2019-04-07T22:01:35.361Z,28.10
2019-04-07T22:04:03.093Z,28.40
2019-04-07T22:06:47.886Z,27.17
2019-04-07T22:09:23.251Z,27.47
2019-04-07T22:11:49.881Z,29.20
2019-04-07T22:14:16.747Z,28.93
2019-04-07T22:16:44.920Z,27.97
2019-04-07T22:19:13.959Z,30.67
2019-04-07T22:21:40.435Z,27.93
2019-04-07T22:24:06.973Z,28.70
2019-04-07T22:26:34.919Z,29.73
2019-04-07T22:29:03.997Z,30.33
2019-04-07T22:31:45.603Z,29.30
2019-04-07T22:34:14.737Z,29.03
2019-04-07T22:36:45.502Z,28.37
2019-04-07T22:39:10.299Z,29.60
2019-04-07T22:41:41.107Z,29.07
2019-04-07T22:44:05.521Z,27.57
2019-04-07T22:46:33.109Z,32.23
2019-04-07T22:48:59.731Z,31.27
2019-04-07T22:51:26.335Z,30.90
2019-04-07T22:53:56.162Z,32.30
2019-04-07T22:56:22.279Z,33.03
2019-04-07T22:58:48.871Z,35.87
2019-04-07T23:01:16.506Z,34.27
2019-04-07T23:03:43.980Z,33.97
2019-04-07T23:06:10.724Z,33.90
2019-04-07T23:08:37.231Z,35.30
2019-04-07T23:11:04.304Z,35.30
2019-04-07T23:13:30.951Z,32.47
2019-04-07T23:16:10.020Z,33.03
2019-04-07T23:18:26.072Z,35.13
2019-04-07T23:20:53.791Z,34.00
2019-04-07T23:23:20.345Z,33.30
2019-04-07T23:25:46.889Z,32.97
2019-04-07T23:28:13.488Z,31.03
2019-04-07T23:30:40.866Z,31.13
2019-04-07T23:33:08.367Z,32.37
2019-04-07T23:35:35.258Z,32.27
2019-04-07T23:38:01.832Z,33.27
2019-04-07T23:40:28.326Z,29.20
2019-04-07T23:42:55.125Z,30.77
2019-04-07T23:45:21.756Z,30.50
2019-04-07T23:47:48.557Z,30.43
2019-04-07T23:50:15.251Z,31.13
2019-04-07T23:52:41.925Z,32.70
2019-04-07T23:55:09.417Z,30.00
2019-04-07T23:57:36.061Z,31.50
